sensor_id;sensor_type;location;lat;lon;timestamp;P1;durP1;ratioP1;P2;durP2;ratioP2
76807;SDS011;65758;45.458;11.062;2023-01-25T00:02:26;8.80;;;6.80;;
76807;SDS011;65758;45.458;11.062;2023-01-25T00:04:53;11.60;;;7.40;;
76807;SDS011;65758;45.458;11.062;2023-01-25T00:07:20;9.40;;;7.10;;
76807;SDS011;65758;45.458;11.062;2023-01-25T00:09:46;9.60;;;6.70;;
76807;SDS011;65758;45.458;11.062;2023-01-25T00:14:40;9.70;;;6.70;;
76807;SDS011;65758;45.458;11.062;2023-01-25T00:19:33;9.80;;;8.00;;
76807;SDS011;65758;45.458;11.062;2023-01-25T00:24:26;11.10;;;8.60;;
76807;SDS011;65758;45.458;11.062;2023-01-25T00:26:53;11.10;;;8.20;;
76807;SDS011;65758;45.458;11.062;2023-01-25T00:39:20;8.50;;;6.50;;
76807;SDS011;65758;45.458;11.062;2023-01-25T00:44:13;10.20;;;8.60;;
76807;SDS011;65758;45.458;11.062;2023-01-25T00:49:09;14.20;;;8.80;;
76807;SDS011;65758;45.458;11.062;2023-01-25T00:51:52;15.00;;;11.00;;
76807;SDS011;65758;45.458;11.062;2023-01-25T00:54:21;12.40;;;8.40;;
76807;SDS011;65758;45.458;11.062;2023-01-25T00:56:48;11.20;;;7.60;;
76807;SDS011;65758;45.458;11.062;2023-01-25T00:59:18;15.10;;;10.70;;
76807;SDS011;65758;45.458;11.062;2023-01-25T01:01:45;9.00;;;6.90;;
76807;SDS011;65758;45.458;11.062;2023-01-25T01:04:12;9.00;;;6.60;;
76807;SDS011;65758;45.458;11.062;2023-01-25T01:06:39;8.50;;;6.40;;
76807;SDS011;65758;45.458;11.062;2023-01-25T01:09:14;7.30;;;5.90;;
76807;SDS011;65758;45.458;11.062;2023-01-25T01:15:55;7.10;;;6.10;;
76807;SDS011;65758;45.458;11.062;2023-01-25T01:18:22;7.50;;;5.90;;
76807;SDS011;65758;45.458;11.062;2023-01-25T01:20:50;9.10;;;6.10;;
76807;SDS011;65758;45.458;11.062;2023-01-25T01:23:20;8.60;;;6.30;;
76807;SDS011;65758;45.458;11.062;2023-01-25T01:25:47;7.50;;;6.20;;
76807;SDS011;65758;45.458;11.062;2023-01-25T01:30:40;7.60;;;5.80;;
76807;SDS011;65758;45.458;11.062;2023-01-25T01:35:34;7.10;;;5.20;;
76807;SDS011;65758;45.458;11.062;2023-01-25T01:38:00;8.20;;;6.50;;
76807;SDS011;65758;45.458;11.062;2023-01-25T01:40:27;6.80;;;5.70;;
76807;SDS011;65758;45.458;11.062;2023-01-25T01:42:55;7.30;;;6.00;;
76807;SDS011;65758;45.458;11.062;2023-01-25T01:53:19;7.30;;;5.90;;
76807;SDS011;65758;45.458;11.062;2023-01-25T01:55:50;8.40;;;6.10;;
76807;SDS011;65758;45.458;11.062;2023-01-25T01:58:21;7.00;;;5.70;;
76807;SDS011;65758;45.458;11.062;2023-01-25T02:00:48;7.50;;;5.90;;
76807;SDS011;65758;45.458;11.062;2023-01-25T02:03:15;9.50;;;6.40;;
76807;SDS011;65758;45.458;11.062;2023-01-25T02:05:48;7.50;;;6.60;;
76807;SDS011;65758;45.458;11.062;2023-01-25T02:08:49;7.70;;;6.40;;
76807;SDS011;65758;45.458;11.062;2023-01-25T02:11:19;7.10;;;6.40;;
76807;SDS011;65758;45.458;11.062;2023-01-25T02:13:47;9.70;;;6.40;;
76807;SDS011;65758;45.458;11.062;2023-01-25T02:16:24;8.10;;;6.00;;
76807;SDS011;65758;45.458;11.062;2023-01-25T02:18:53;8.20;;;5.90;;
76807;SDS011;65758;45.458;11.062;2023-01-25T02:21:22;7.90;;;6.30;;
76807;SDS011;65758;45.458;11.062;2023-01-25T02:24:16;8.80;;;6.40;;
76807;SDS011;65758;45.458;11.062;2023-01-25T02:26:48;9.40;;;6.60;;
76807;SDS011;65758;45.458;11.062;2023-01-25T02:29:15;8.50;;;6.50;;
76807;SDS011;65758;45.458;11.062;2023-01-25T02:31:45;7.60;;;6.30;;
76807;SDS011;65758;45.458;11.062;2023-01-25T02:34:15;6.90;;;5.90;;
76807;SDS011;65758;45.458;11.062;2023-01-25T02:39:10;8.00;;;6.40;;
76807;SDS011;65758;45.458;11.062;2023-01-25T02:41:44;7.80;;;6.20;;
76807;SDS011;65758;45.458;11.062;2023-01-25T02:44:14;8.10;;;6.70;;
76807;SDS011;65758;45.458;11.062;2023-01-25T02:46:46;8.90;;;6.40;;
76807;SDS011;65758;45.458;11.062;2023-01-25T02:49:14;9.40;;;7.40;;
76807;SDS011;65758;45.458;11.062;2023-01-25T02:51:43;11.20;;;8.70;;
76807;SDS011;65758;45.458;11.062;2023-01-25T02:54:12;8.80;;;6.70;;
76807;SDS011;65758;45.458;11.062;2023-01-25T02:56:40;10.20;;;6.90;;
76807;SDS011;65758;45.458;11.062;2023-01-25T02:59:08;8.20;;;6.20;;
76807;SDS011;65758;45.458;11.062;2023-01-25T03:01:37;7.10;;;6.10;;
76807;SDS011;65758;45.458;11.062;2023-01-25T03:04:05;7.70;;;5.70;;
76807;SDS011;65758;45.458;11.062;2023-01-25T03:06:34;6.00;;;5.40;;
76807;SDS011;65758;45.458;11.062;2023-01-25T03:09:02;5.60;;;5.10;;
76807;SDS011;65758;45.458;11.062;2023-01-25T03:11:30;5.40;;;4.50;;
76807;SDS011;65758;45.458;11.062;2023-01-25T03:13:57;5.80;;;5.00;;
76807;SDS011;65758;45.458;11.062;2023-01-25T03:18:54;6.90;;;4.70;;
76807;SDS011;65758;45.458;11.062;2023-01-25T03:21:22;5.10;;;4.20;;
76807;SDS011;65758;45.458;11.062;2023-01-25T03:23:56;4.80;;;4.30;;
76807;SDS011;65758;45.458;11.062;2023-01-25T03:26:28;6.00;;;4.40;;
76807;SDS011;65758;45.458;11.062;2023-01-25T03:29:12;5.80;;;4.10;;
76807;SDS011;65758;45.458;11.062;2023-01-25T03:31:41;5.20;;;4.50;;
76807;SDS011;65758;45.458;11.062;2023-01-25T03:34:08;5.00;;;4.30;;
76807;SDS011;65758;45.458;11.062;2023-01-25T03:36:37;7.40;;;4.60;;
76807;SDS011;65758;45.458;11.062;2023-01-25T03:39:04;6.90;;;4.00;;
76807;SDS011;65758;45.458;11.062;2023-01-25T03:41:35;4.80;;;3.90;;
76807;SDS011;65758;45.458;11.062;2023-01-25T03:44:07;4.90;;;3.90;;
76807;SDS011;65758;45.458;11.062;2023-01-25T03:46:38;5.40;;;3.80;;
76807;SDS011;65758;45.458;11.062;2023-01-25T03:49:06;4.60;;;3.60;;
76807;SDS011;65758;45.458;11.062;2023-01-25T03:51:34;3.60;;;3.20;;
76807;SDS011;65758;45.458;11.062;2023-01-25T03:54:02;4.90;;;3.20;;
76807;SDS011;65758;45.458;11.062;2023-01-25T03:56:32;5.00;;;3.50;;
76807;SDS011;65758;45.458;11.062;2023-01-25T03:59:04;4.50;;;4.10;;
76807;SDS011;65758;45.458;11.062;2023-01-25T04:01:31;5.40;;;4.10;;
76807;SDS011;65758;45.458;11.062;2023-01-25T04:03:58;4.40;;;3.70;;
76807;SDS011;65758;45.458;11.062;2023-01-25T04:06:25;3.50;;;3.10;;
76807;SDS011;65758;45.458;11.062;2023-01-25T04:08:52;3.80;;;3.40;;
76807;SDS011;65758;45.458;11.062;2023-01-25T04:11:20;4.00;;;3.30;;
76807;SDS011;65758;45.458;11.062;2023-01-25T04:13:47;4.90;;;3.90;;
76807;SDS011;65758;45.458;11.062;2023-01-25T04:16:14;4.30;;;3.60;;
76807;SDS011;65758;45.458;11.062;2023-01-25T04:19:16;3.90;;;3.40;;
76807;SDS011;65758;45.458;11.062;2023-01-25T04:21:43;3.70;;;3.30;;
76807;SDS011;65758;45.458;11.062;2023-01-25T04:24:10;4.30;;;3.90;;
76807;SDS011;65758;45.458;11.062;2023-01-25T04:26:38;4.40;;;3.70;;
76807;SDS011;65758;45.458;11.062;2023-01-25T04:31:33;4.00;;;3.20;;
76807;SDS011;65758;45.458;11.062;2023-01-25T04:34:01;4.90;;;3.70;;
76807;SDS011;65758;45.458;11.062;2023-01-25T04:38:54;3.70;;;3.30;;
76807;SDS011;65758;45.458;11.062;2023-01-25T04:41:21;3.90;;;3.50;;
76807;SDS011;65758;45.458;11.062;2023-01-25T04:43:52;3.90;;;3.50;;
76807;SDS011;65758;45.458;11.062;2023-01-25T04:46:19;5.50;;;4.00;;
76807;SDS011;65758;45.458;11.062;2023-01-25T04:48:46;3.50;;;3.20;;
76807;SDS011;65758;45.458;11.062;2023-01-25T04:51:16;4.20;;;3.50;;
76807;SDS011;65758;45.458;11.062;2023-01-25T04:53:43;4.00;;;3.30;;
76807;SDS011;65758;45.458;11.062;2023-01-25T04:58:45;3.70;;;3.20;;
76807;SDS011;65758;45.458;11.062;2023-01-25T05:03:39;4.60;;;3.30;;
76807;SDS011;65758;45.458;11.062;2023-01-25T05:06:11;4.20;;;3.70;;
76807;SDS011;65758;45.458;11.062;2023-01-25T05:11:04;3.70;;;3.30;;
76807;SDS011;65758;45.458;11.062;2023-01-25T05:13:45;3.70;;;3.40;;
76807;SDS011;65758;45.458;11.062;2023-01-25T05:16:17;3.50;;;3.00;;
76807;SDS011;65758;45.458;11.062;2023-01-25T05:18:43;5.50;;;3.70;;
76807;SDS011;65758;45.458;11.062;2023-01-25T05:21:18;3.40;;;3.10;;
76807;SDS011;65758;45.458;11.062;2023-01-25T05:24:05;3.40;;;3.10;;
76807;SDS011;65758;45.458;11.062;2023-01-25T05:26:33;6.00;;;3.80;;
76807;SDS011;65758;45.458;11.062;2023-01-25T05:29:18;4.00;;;3.40;;
76807;SDS011;65758;45.458;11.062;2023-01-25T05:31:52;4.70;;;3.90;;
76807;SDS011;65758;45.458;11.062;2023-01-25T05:34:20;4.90;;;4.10;;
76807;SDS011;65758;45.458;11.062;2023-01-25T05:36:46;5.90;;;3.90;;
76807;SDS011;65758;45.458;11.062;2023-01-25T05:41:40;4.10;;;3.70;;
76807;SDS011;65758;45.458;11.062;2023-01-25T05:44:06;4.30;;;3.70;;
76807;SDS011;65758;45.458;11.062;2023-01-25T05:46:38;5.80;;;4.00;;
76807;SDS011;65758;45.458;11.062;2023-01-25T05:49:05;6.80;;;4.30;;
76807;SDS011;65758;45.458;11.062;2023-01-25T05:51:32;4.30;;;3.90;;
76807;SDS011;65758;45.458;11.062;2023-01-25T05:54:01;5.60;;;3.60;;
76807;SDS011;65758;45.458;11.062;2023-01-25T05:56:28;5.00;;;4.10;;
76807;SDS011;65758;45.458;11.062;2023-01-25T05:58:56;5.30;;;4.50;;
76807;SDS011;65758;45.458;11.062;2023-01-25T06:01:24;4.90;;;3.60;;
76807;SDS011;65758;45.458;11.062;2023-01-25T06:03:51;4.50;;;3.70;;
76807;SDS011;65758;45.458;11.062;2023-01-25T06:06:20;4.30;;;3.90;;
76807;SDS011;65758;45.458;11.062;2023-01-25T06:08:48;4.20;;;3.80;;
76807;SDS011;65758;45.458;11.062;2023-01-25T06:11:16;4.50;;;4.10;;
76807;SDS011;65758;45.458;11.062;2023-01-25T06:13:46;7.90;;;5.10;;
76807;SDS011;65758;45.458;11.062;2023-01-25T06:16:15;5.70;;;4.80;;
76807;SDS011;65758;45.458;11.062;2023-01-25T06:19:06;5.40;;;4.70;;
76807;SDS011;65758;45.458;11.062;2023-01-25T06:21:49;4.90;;;4.20;;
76807;SDS011;65758;45.458;11.062;2023-01-25T06:24:16;5.80;;;5.00;;
76807;SDS011;65758;45.458;11.062;2023-01-25T06:26:42;4.90;;;4.10;;
76807;SDS011;65758;45.458;11.062;2023-01-25T06:31:36;6.10;;;4.40;;
76807;SDS011;65758;45.458;11.062;2023-01-25T06:34:03;7.70;;;4.60;;
76807;SDS011;65758;45.458;11.062;2023-01-25T06:36:33;6.80;;;5.10;;
76807;SDS011;65758;45.458;11.062;2023-01-25T06:39:01;9.30;;;6.10;;
76807;SDS011;65758;45.458;11.062;2023-01-25T06:41:27;7.00;;;4.90;;
76807;SDS011;65758;45.458;11.062;2023-01-25T06:43:54;8.40;;;6.20;;
76807;SDS011;65758;45.458;11.062;2023-01-25T06:46:21;6.50;;;4.70;;
76807;SDS011;65758;45.458;11.062;2023-01-25T06:48:48;7.90;;;5.70;;
76807;SDS011;65758;45.458;11.062;2023-01-25T06:51:15;5.90;;;4.70;;
76807;SDS011;65758;45.458;11.062;2023-01-25T06:53:43;6.50;;;4.70;;
76807;SDS011;65758;45.458;11.062;2023-01-25T06:56:16;7.30;;;4.70;;
76807;SDS011;65758;45.458;11.062;2023-01-25T06:58:44;7.80;;;4.90;;
76807;SDS011;65758;45.458;11.062;2023-01-25T07:01:21;6.20;;;4.60;;
76807;SDS011;65758;45.458;11.062;2023-01-25T07:03:53;7.60;;;5.00;;
76807;SDS011;65758;45.458;11.062;2023-01-25T07:06:22;10.90;;;5.60;;
76807;SDS011;65758;45.458;11.062;2023-01-25T07:08:50;6.40;;;5.10;;
76807;SDS011;65758;45.458;11.062;2023-01-25T07:11:18;11.90;;;6.10;;
76807;SDS011;65758;45.458;11.062;2023-01-25T07:16:13;6.30;;;4.70;;
76807;SDS011;65758;45.458;11.062;2023-01-25T07:18:41;10.20;;;5.50;;
76807;SDS011;65758;45.458;11.062;2023-01-25T07:21:09;7.90;;;5.00;;
76807;SDS011;65758;45.458;11.062;2023-01-25T07:23:41;9.00;;;5.00;;
76807;SDS011;65758;45.458;11.062;2023-01-25T07:26:12;8.00;;;4.70;;
76807;SDS011;65758;45.458;11.062;2023-01-25T07:28:44;8.50;;;5.10;;
76807;SDS011;65758;45.458;11.062;2023-01-25T07:31:11;6.70;;;4.70;;
76807;SDS011;65758;45.458;11.062;2023-01-25T07:33:39;8.40;;;5.00;;
76807;SDS011;65758;45.458;11.062;2023-01-25T07:36:07;6.00;;;4.80;;
76807;SDS011;65758;45.458;11.062;2023-01-25T07:38:35;9.20;;;5.10;;
76807;SDS011;65758;45.458;11.062;2023-01-25T07:41:02;11.00;;;5.30;;
76807;SDS011;65758;45.458;11.062;2023-01-25T07:43:30;5.70;;;4.40;;
76807;SDS011;65758;45.458;11.062;2023-01-25T07:46:01;9.40;;;5.70;;
76807;SDS011;65758;45.458;11.062;2023-01-25T07:48:32;7.00;;;5.10;;
76807;SDS011;65758;45.458;11.062;2023-01-25T07:51:00;10.90;;;5.30;;
76807;SDS011;65758;45.458;11.062;2023-01-25T07:53:41;9.30;;;5.90;;
76807;SDS011;65758;45.458;11.062;2023-01-25T07:56:11;10.90;;;6.50;;
76807;SDS011;65758;45.458;11.062;2023-01-25T07:58:38;10.90;;;5.70;;
76807;SDS011;65758;45.458;11.062;2023-01-25T08:01:09;10.40;;;5.60;;
76807;SDS011;65758;45.458;11.062;2023-01-25T08:03:37;11.10;;;6.00;;
76807;SDS011;65758;45.458;11.062;2023-01-25T08:06:04;6.70;;;5.80;;
76807;SDS011;65758;45.458;11.062;2023-01-25T08:08:33;16.10;;;6.50;;
76807;SDS011;65758;45.458;11.062;2023-01-25T08:11:12;12.10;;;5.90;;
76807;SDS011;65758;45.458;11.062;2023-01-25T08:13:41;11.10;;;6.40;;
76807;SDS011;65758;45.458;11.062;2023-01-25T08:16:12;7.40;;;5.50;;
76807;SDS011;65758;45.458;11.062;2023-01-25T08:18:40;10.00;;;6.10;;
76807;SDS011;65758;45.458;11.062;2023-01-25T08:21:07;8.70;;;6.80;;
76807;SDS011;65758;45.458;11.062;2023-01-25T08:23:34;8.60;;;6.40;;
76807;SDS011;65758;45.458;11.062;2023-01-25T08:26:02;6.90;;;5.70;;
76807;SDS011;65758;45.458;11.062;2023-01-25T08:28:31;10.80;;;6.50;;
76807;SDS011;65758;45.458;11.062;2023-01-25T08:33:35;9.70;;;6.40;;
76807;SDS011;65758;45.458;11.062;2023-01-25T08:36:03;9.60;;;7.50;;
76807;SDS011;65758;45.458;11.062;2023-01-25T08:38:31;12.40;;;8.00;;
76807;SDS011;65758;45.458;11.062;2023-01-25T08:41:31;8.80;;;6.60;;
76807;SDS011;65758;45.458;11.062;2023-01-25T08:43:52;11.60;;;6.40;;
76807;SDS011;65758;45.458;11.062;2023-01-25T08:46:21;7.90;;;6.50;;
76807;SDS011;65758;45.458;11.062;2023-01-25T08:48:55;8.70;;;7.00;;
76807;SDS011;65758;45.458;11.062;2023-01-25T08:51:23;10.20;;;6.80;;
76807;SDS011;65758;45.458;11.062;2023-01-25T08:53:51;12.00;;;6.90;;
76807;SDS011;65758;45.458;11.062;2023-01-25T08:56:18;10.30;;;6.60;;
76807;SDS011;65758;45.458;11.062;2023-01-25T08:58:45;10.60;;;6.30;;
76807;SDS011;65758;45.458;11.062;2023-01-25T09:01:15;12.20;;;6.50;;
76807;SDS011;65758;45.458;11.062;2023-01-25T09:03:44;10.10;;;7.30;;
76807;SDS011;65758;45.458;11.062;2023-01-25T09:06:13;9.50;;;6.70;;
76807;SDS011;65758;45.458;11.062;2023-01-25T09:08:40;10.70;;;6.80;;
76807;SDS011;65758;45.458;11.062;2023-01-25T09:11:09;10.00;;;7.00;;
76807;SDS011;65758;45.458;11.062;2023-01-25T09:13:39;9.50;;;7.20;;
76807;SDS011;65758;45.458;11.062;2023-01-25T09:16:10;13.00;;;7.90;;
76807;SDS011;65758;45.458;11.062;2023-01-25T09:18:39;12.10;;;8.50;;
76807;SDS011;65758;45.458;11.062;2023-01-25T09:21:08;12.80;;;8.20;;
76807;SDS011;65758;45.458;11.062;2023-01-25T09:23:40;10.80;;;7.20;;
76807;SDS011;65758;45.458;11.062;2023-01-25T09:26:29;11.20;;;8.40;;
76807;SDS011;65758;45.458;11.062;2023-01-25T09:28:57;12.00;;;9.00;;
76807;SDS011;65758;45.458;11.062;2023-01-25T09:31:25;12.00;;;8.10;;
76807;SDS011;65758;45.458;11.062;2023-01-25T09:36:54;10.60;;;7.40;;
76807;SDS011;65758;45.458;11.062;2023-01-25T09:39:21;11.40;;;7.30;;
76807;SDS011;65758;45.458;11.062;2023-01-25T09:47:28;10.10;;;6.70;;
76807;SDS011;65758;45.458;11.062;2023-01-25T09:50:11;10.80;;;7.20;;
76807;SDS011;65758;45.458;11.062;2023-01-25T09:55:21;12.40;;;6.80;;
76807;SDS011;65758;45.458;11.062;2023-01-25T09:57:52;10.50;;;7.70;;
76807;SDS011;65758;45.458;11.062;2023-01-25T10:00:41;11.80;;;8.40;;
76807;SDS011;65758;45.458;11.062;2023-01-25T10:03:12;14.30;;;8.70;;
76807;SDS011;65758;45.458;11.062;2023-01-25T10:05:48;12.90;;;8.90;;
76807;SDS011;65758;45.458;11.062;2023-01-25T10:08:37;14.00;;;8.10;;
76807;SDS011;65758;45.458;11.062;2023-01-25T10:11:21;10.60;;;7.20;;
76807;SDS011;65758;45.458;11.062;2023-01-25T10:13:51;8.20;;;6.10;;
76807;SDS011;65758;45.458;11.062;2023-01-25T10:19:04;11.50;;;6.60;;
76807;SDS011;65758;45.458;11.062;2023-01-25T10:21:56;13.60;;;7.00;;
76807;SDS011;65758;45.458;11.062;2023-01-25T10:30:28;8.80;;;5.80;;
76807;SDS011;65758;45.458;11.062;2023-01-25T10:32:57;8.70;;;6.30;;
76807;SDS011;65758;45.458;11.062;2023-01-25T10:35:29;8.00;;;5.70;;
76807;SDS011;65758;45.458;11.062;2023-01-25T10:40:48;10.70;;;6.00;;
76807;SDS011;65758;45.458;11.062;2023-01-25T10:43:21;7.30;;;5.60;;
76807;SDS011;65758;45.458;11.062;2023-01-25T10:45:48;7.90;;;5.40;;
76807;SDS011;65758;45.458;11.062;2023-01-25T10:48:20;5.00;;;3.70;;
76807;SDS011;65758;45.458;11.062;2023-01-25T10:50:55;6.40;;;4.80;;
76807;SDS011;65758;45.458;11.062;2023-01-25T10:58:35;4.90;;;3.90;;
76807;SDS011;65758;45.458;11.062;2023-01-25T11:01:08;5.30;;;3.80;;
76807;SDS011;65758;45.458;11.062;2023-01-25T11:03:39;4.80;;;3.60;;
76807;SDS011;65758;45.458;11.062;2023-01-25T11:06:07;6.10;;;4.20;;
76807;SDS011;65758;45.458;11.062;2023-01-25T11:08:38;6.30;;;4.70;;
76807;SDS011;65758;45.458;11.062;2023-01-25T11:11:12;5.50;;;4.20;;
76807;SDS011;65758;45.458;11.062;2023-01-25T11:13:51;4.70;;;4.20;;
76807;SDS011;65758;45.458;11.062;2023-01-25T11:19:00;5.60;;;3.90;;
76807;SDS011;65758;45.458;11.062;2023-01-25T11:21:29;5.90;;;4.40;;
76807;SDS011;65758;45.458;11.062;2023-01-25T11:26:38;5.90;;;4.20;;
76807;SDS011;65758;45.458;11.062;2023-01-25T11:31:36;5.20;;;3.60;;
76807;SDS011;65758;45.458;11.062;2023-01-25T11:34:08;4.90;;;3.40;;
76807;SDS011;65758;45.458;11.062;2023-01-25T11:36:48;8.30;;;3.60;;
76807;SDS011;65758;45.458;11.062;2023-01-25T11:57:29;5.30;;;3.70;;
76807;SDS011;65758;45.458;11.062;2023-01-25T12:02:56;6.10;;;4.20;;
76807;SDS011;65758;45.458;11.062;2023-01-25T12:11:05;5.60;;;4.10;;
76807;SDS011;65758;45.458;11.062;2023-01-25T12:13:48;6.60;;;4.80;;
76807;SDS011;65758;45.458;11.062;2023-01-25T12:36:09;8.00;;;6.10;;
76807;SDS011;65758;45.458;11.062;2023-01-25T12:38:41;7.20;;;5.20;;
76807;SDS011;65758;45.458;11.062;2023-01-25T12:44:19;6.50;;;4.20;;
76807;SDS011;65758;45.458;11.062;2023-01-25T12:46:51;7.60;;;4.80;;
76807;SDS011;65758;45.458;11.062;2023-01-25T12:53:47;6.40;;;4.20;;
76807;SDS011;65758;45.458;11.062;2023-01-25T12:56:21;4.10;;;3.50;;
76807;SDS011;65758;45.458;11.062;2023-01-25T13:02:11;3.20;;;2.70;;
76807;SDS011;65758;45.458;11.062;2023-01-25T13:05:09;4.90;;;3.80;;
76807;SDS011;65758;45.458;11.062;2023-01-25T13:10:24;5.10;;;3.50;;
76807;SDS011;65758;45.458;11.062;2023-01-25T13:12:58;3.80;;;3.40;;
76807;SDS011;65758;45.458;11.062;2023-01-25T13:19:52;5.40;;;3.90;;
76807;SDS011;65758;45.458;11.062;2023-01-25T13:27:41;5.70;;;4.50;;
76807;SDS011;65758;45.458;11.062;2023-01-25T13:40:43;6.10;;;4.40;;
76807;SDS011;65758;45.458;11.062;2023-01-25T13:45:37;7.60;;;4.70;;
76807;SDS011;65758;45.458;11.062;2023-01-25T13:48:11;7.50;;;5.10;;
76807;SDS011;65758;45.458;11.062;2023-01-25T13:55:14;11.70;;;5.10;;
76807;SDS011;65758;45.458;11.062;2023-01-25T13:57:43;8.00;;;5.10;;
76807;SDS011;65758;45.458;11.062;2023-01-25T14:00:13;8.60;;;5.70;;
76807;SDS011;65758;45.458;11.062;2023-01-25T14:02:45;6.90;;;4.50;;
76807;SDS011;65758;45.458;11.062;2023-01-25T14:05:20;7.50;;;4.80;;
76807;SDS011;65758;45.458;11.062;2023-01-25T14:07:50;7.90;;;5.00;;
76807;SDS011;65758;45.458;11.062;2023-01-25T14:10:23;7.90;;;4.70;;
76807;SDS011;65758;45.458;11.062;2023-01-25T14:12:52;7.00;;;4.90;;
76807;SDS011;65758;45.458;11.062;2023-01-25T14:15:25;9.50;;;5.50;;
76807;SDS011;65758;45.458;11.062;2023-01-25T14:20:39;6.60;;;4.90;;
76807;SDS011;65758;45.458;11.062;2023-01-25T14:23:19;7.70;;;5.30;;
76807;SDS011;65758;45.458;11.062;2023-01-25T14:25:48;7.00;;;4.80;;
76807;SDS011;65758;45.458;11.062;2023-01-25T14:28:15;7.10;;;5.10;;
76807;SDS011;65758;45.458;11.062;2023-01-25T14:30:43;7.80;;;5.60;;
76807;SDS011;65758;45.458;11.062;2023-01-25T14:33:17;20.10;;;9.60;;
76807;SDS011;65758;45.458;11.062;2023-01-25T14:35:45;10.70;;;5.70;;
76807;SDS011;65758;45.458;11.062;2023-01-25T14:41:01;8.60;;;5.00;;
76807;SDS011;65758;45.458;11.062;2023-01-25T14:43:37;7.30;;;5.10;;
76807;SDS011;65758;45.458;11.062;2023-01-25T14:48:44;7.30;;;4.90;;
76807;SDS011;65758;45.458;11.062;2023-01-25T14:51:17;8.10;;;5.40;;
76807;SDS011;65758;45.458;11.062;2023-01-25T14:53:58;9.70;;;5.30;;
76807;SDS011;65758;45.458;11.062;2023-01-25T15:01:52;7.70;;;5.00;;
76807;SDS011;65758;45.458;11.062;2023-01-25T15:04:21;7.80;;;5.40;;
76807;SDS011;65758;45.458;11.062;2023-01-25T15:06:50;9.20;;;5.60;;
76807;SDS011;65758;45.458;11.062;2023-01-25T15:09:32;6.00;;;4.50;;
76807;SDS011;65758;45.458;11.062;2023-01-25T15:12:03;7.70;;;4.70;;
76807;SDS011;65758;45.458;11.062;2023-01-25T15:14:51;7.20;;;4.60;;
76807;SDS011;65758;45.458;11.062;2023-01-25T15:20:54;6.90;;;4.50;;
76807;SDS011;65758;45.458;11.062;2023-01-25T15:22:59;7.60;;;5.30;;
76807;SDS011;65758;45.458;11.062;2023-01-25T15:25:29;6.70;;;4.90;;
76807;SDS011;65758;45.458;11.062;2023-01-25T15:27:55;7.10;;;5.30;;
76807;SDS011;65758;45.458;11.062;2023-01-25T15:30:22;8.60;;;5.70;;
76807;SDS011;65758;45.458;11.062;2023-01-25T15:32:49;9.60;;;5.80;;
76807;SDS011;65758;45.458;11.062;2023-01-25T15:35:17;10.50;;;5.70;;
76807;SDS011;65758;45.458;11.062;2023-01-25T15:37:46;9.60;;;5.50;;
76807;SDS011;65758;45.458;11.062;2023-01-25T15:40:15;9.60;;;5.60;;
76807;SDS011;65758;45.458;11.062;2023-01-25T15:42:42;10.50;;;6.00;;
76807;SDS011;65758;45.458;11.062;2023-01-25T15:45:09;8.60;;;6.30;;
76807;SDS011;65758;45.458;11.062;2023-01-25T15:47:36;10.10;;;6.20;;
76807;SDS011;65758;45.458;11.062;2023-01-25T15:50:04;9.00;;;5.80;;
76807;SDS011;65758;45.458;11.062;2023-01-25T15:52:32;9.90;;;6.10;;
76807;SDS011;65758;45.458;11.062;2023-01-25T15:54:58;11.70;;;6.50;;
76807;SDS011;65758;45.458;11.062;2023-01-25T15:57:30;13.60;;;6.80;;
76807;SDS011;65758;45.458;11.062;2023-01-25T15:59:59;10.50;;;6.40;;
76807;SDS011;65758;45.458;11.062;2023-01-25T16:02:29;13.70;;;7.00;;
76807;SDS011;65758;45.458;11.062;2023-01-25T16:04:56;10.70;;;6.80;;
76807;SDS011;65758;45.458;11.062;2023-01-25T16:07:27;11.70;;;6.00;;
76807;SDS011;65758;45.458;11.062;2023-01-25T16:09:55;13.80;;;6.60;;
76807;SDS011;65758;45.458;11.062;2023-01-25T16:12:21;9.20;;;6.30;;
76807;SDS011;65758;45.458;11.062;2023-01-25T16:14:50;11.20;;;6.60;;
76807;SDS011;65758;45.458;11.062;2023-01-25T16:17:17;11.00;;;6.60;;
76807;SDS011;65758;45.458;11.062;2023-01-25T16:19:46;11.20;;;7.40;;
76807;SDS011;65758;45.458;11.062;2023-01-25T16:22:13;9.80;;;6.60;;
76807;SDS011;65758;45.458;11.062;2023-01-25T16:24:41;11.50;;;7.30;;
76807;SDS011;65758;45.458;11.062;2023-01-25T16:27:17;15.30;;;8.20;;
76807;SDS011;65758;45.458;11.062;2023-01-25T16:29:51;9.20;;;6.40;;
76807;SDS011;65758;45.458;11.062;2023-01-25T16:32:18;9.90;;;7.30;;
76807;SDS011;65758;45.458;11.062;2023-01-25T16:34:45;13.90;;;7.90;;
76807;SDS011;65758;45.458;11.062;2023-01-25T16:37:15;14.10;;;7.90;;
76807;SDS011;65758;45.458;11.062;2023-01-25T16:39:42;16.20;;;8.90;;
76807;SDS011;65758;45.458;11.062;2023-01-25T16:42:10;14.90;;;8.40;;
76807;SDS011;65758;45.458;11.062;2023-01-25T16:44:37;11.00;;;6.70;;
76807;SDS011;65758;45.458;11.062;2023-01-25T16:47:04;14.00;;;8.40;;
76807;SDS011;65758;45.458;11.062;2023-01-25T16:49:31;23.00;;;17.00;;
76807;SDS011;65758;45.458;11.062;2023-01-25T16:52:00;18.50;;;12.20;;
76807;SDS011;65758;45.458;11.062;2023-01-25T16:54:28;15.50;;;10.20;;
76807;SDS011;65758;45.458;11.062;2023-01-25T16:56:55;20.50;;;10.80;;
76807;SDS011;65758;45.458;11.062;2023-01-25T17:01:49;14.60;;;10.50;;
76807;SDS011;65758;45.458;11.062;2023-01-25T17:04:16;14.10;;;9.00;;
76807;SDS011;65758;45.458;11.062;2023-01-25T17:06:44;12.00;;;7.40;;
76807;SDS011;65758;45.458;11.062;2023-01-25T17:09:15;14.00;;;7.40;;
76807;SDS011;65758;45.458;11.062;2023-01-25T17:11:51;15.00;;;9.40;;
76807;SDS011;65758;45.458;11.062;2023-01-25T17:14:19;13.60;;;9.20;;
76807;SDS011;65758;45.458;11.062;2023-01-25T17:16:46;18.40;;;8.30;;
76807;SDS011;65758;45.458;11.062;2023-01-25T17:19:16;15.30;;;8.40;;
76807;SDS011;65758;45.458;11.062;2023-01-25T17:21:43;18.20;;;9.40;;
76807;SDS011;65758;45.458;11.062;2023-01-25T17:24:11;15.70;;;9.40;;
76807;SDS011;65758;45.458;11.062;2023-01-25T17:26:40;14.80;;;9.40;;
76807;SDS011;65758;45.458;11.062;2023-01-25T17:29:07;21.50;;;10.70;;
76807;SDS011;65758;45.458;11.062;2023-01-25T17:31:35;14.90;;;9.90;;
76807;SDS011;65758;45.458;11.062;2023-01-25T17:34:04;14.10;;;8.20;;
76807;SDS011;65758;45.458;11.062;2023-01-25T17:36:32;14.80;;;8.80;;
76807;SDS011;65758;45.458;11.062;2023-01-25T17:39:00;14.70;;;9.00;;
76807;SDS011;65758;45.458;11.062;2023-01-25T17:41:30;12.70;;;8.20;;
76807;SDS011;65758;45.458;11.062;2023-01-25T17:43:57;16.50;;;12.60;;
76807;SDS011;65758;45.458;11.062;2023-01-25T17:46:28;21.80;;;15.90;;
76807;SDS011;65758;45.458;11.062;2023-01-25T17:49:05;22.30;;;11.60;;
76807;SDS011;65758;45.458;11.062;2023-01-25T17:51:33;17.00;;;10.70;;
76807;SDS011;65758;45.458;11.062;2023-01-25T17:54:02;24.70;;;10.60;;
76807;SDS011;65758;45.458;11.062;2023-01-25T17:56:29;12.40;;;8.80;;
76807;SDS011;65758;45.458;11.062;2023-01-25T17:58:56;14.40;;;9.00;;
76807;SDS011;65758;45.458;11.062;2023-01-25T18:01:26;14.30;;;9.00;;
76807;SDS011;65758;45.458;11.062;2023-01-25T18:03:55;12.90;;;8.50;;
76807;SDS011;65758;45.458;11.062;2023-01-25T18:06:23;13.80;;;9.10;;
76807;SDS011;65758;45.458;11.062;2023-01-25T18:08:52;16.10;;;9.90;;
76807;SDS011;65758;45.458;11.062;2023-01-25T18:11:22;15.80;;;8.80;;
76807;SDS011;65758;45.458;11.062;2023-01-25T18:13:52;15.50;;;9.60;;
76807;SDS011;65758;45.458;11.062;2023-01-25T18:16:22;19.60;;;9.20;;
76807;SDS011;65758;45.458;11.062;2023-01-25T18:18:50;21.10;;;11.20;;